createdAt,value
2017-12-23T00:00:14.143Z,0
2017-12-23T00:00:54.668Z,0
2017-12-23T00:01:35.200Z,0
2017-12-23T00:02:15.717Z,0
2017-12-23T00:02:56.250Z,0
2017-12-23T00:03:36.761Z,0
2017-12-23T00:04:17.269Z,0
2017-12-23T00:04:57.772Z,0
2017-12-23T00:05:38.306Z,0
2017-12-23T00:06:18.844Z,0
2017-12-23T00:06:59.348Z,0
2017-12-23T00:07:39.891Z,0
2017-12-23T00:08:20.391Z,0
2017-12-23T00:09:00.923Z,0
2017-12-23T00:09:41.449Z,0
2017-12-23T00:10:21.999Z,0
2017-12-23T00:11:02.530Z,0
2017-12-23T00:11:43.079Z,0
2017-12-23T00:12:23.593Z,0
2017-12-23T00:13:04.105Z,0
2017-12-23T00:13:44.630Z,0
2017-12-23T00:14:25.166Z,0
2017-12-23T00:15:05.733Z,0
2017-12-23T00:15:46.248Z,0
2017-12-23T00:16:26.764Z,0
2017-12-23T00:17:07.256Z,0
2017-12-23T00:17:47.772Z,0
2017-12-23T00:18:28.291Z,0
2017-12-23T00:19:08.806Z,0
2017-12-23T00:19:49.346Z,0
2017-12-23T00:20:29.876Z,0
2017-12-23T00:21:10.387Z,0
2017-12-23T00:21:50.921Z,0
2017-12-23T00:22:31.456Z,0
2017-12-23T00:23:11.951Z,0
2017-12-23T00:23:52.502Z,0
2017-12-23T00:24:33.012Z,0
2017-12-23T00:25:13.551Z,0
2017-12-23T00:25:54.081Z,0
2017-12-23T00:26:34.594Z,0
2017-12-23T00:27:15.128Z,0
2017-12-23T00:27:55.638Z,0
2017-12-23T00:28:36.153Z,0
2017-12-23T00:29:16.681Z,0
2017-12-23T00:29:57.189Z,0
2017-12-23T00:30:37.719Z,0
2017-12-23T00:31:18.242Z,0
2017-12-23T00:31:58.765Z,0
2017-12-23T00:32:39.288Z,0
2017-12-23T00:33:19.834Z,0
2017-12-23T00:34:00.352Z,0
2017-12-23T00:34:40.897Z,0
2017-12-23T00:35:21.422Z,0
2017-12-23T00:36:01.957Z,0
2017-12-23T00:36:42.457Z,0
2017-12-23T00:37:22.969Z,0
2017-12-23T00:38:03.477Z,0
2017-12-23T00:38:44.005Z,0
2017-12-23T00:39:24.534Z,0
2017-12-23T00:40:05.056Z,0
2017-12-23T00:40:45.548Z,0
2017-12-23T00:41:26.075Z,0
2017-12-23T00:42:06.594Z,0
2017-12-23T00:42:47.114Z,0
2017-12-23T00:43:27.637Z,0
2017-12-23T00:44:08.174Z,0
2017-12-23T00:44:48.680Z,0
2017-12-23T00:45:29.205Z,0
2017-12-23T00:46:09.734Z,0
2017-12-23T00:46:50.270Z,0
2017-12-23T00:47:30.785Z,0
2017-12-23T00:48:11.310Z,0
2017-12-23T00:48:51.824Z,0
2017-12-23T00:49:32.339Z,0
2017-12-23T00:50:12.857Z,0
2017-12-23T00:50:53.382Z,0
2017-12-23T00:51:33.907Z,0
2017-12-23T00:52:14.418Z,0
2017-12-23T00:52:54.946Z,0
2017-12-23T00:53:35.504Z,0
2017-12-23T00:54:16.031Z,0
2017-12-23T00:54:56.560Z,0
2017-12-23T00:55:37.072Z,0
2017-12-23T00:56:17.598Z,0
2017-12-23T00:56:58.095Z,0
2017-12-23T00:57:38.623Z,0
2017-12-23T00:58:19.166Z,0
2017-12-23T00:58:59.712Z,0
2017-12-23T00:59:40.239Z,0
2017-12-23T01:00:20.783Z,0
2017-12-23T01:01:01.301Z,0
2017-12-23T01:01:41.822Z,0
2017-12-23T01:02:22.363Z,0
2017-12-23T01:03:02.901Z,0
2017-12-23T01:03:43.456Z,0
2017-12-23T01:04:23.979Z,0
2017-12-23T01:05:04.494Z,0
2017-12-23T01:05:45.012Z,0
2017-12-23T01:06:25.531Z,0
2017-12-23T01:07:06.021Z,0
2017-12-23T01:07:46.539Z,0
2017-12-23T01:08:27.046Z,0
2017-12-23T01:09:07.577Z,0
2017-12-23T01:09:48.093Z,0
2017-12-23T01:10:28.614Z,0
2017-12-23T01:11:09.134Z,0
2017-12-23T01:11:49.650Z,0
2017-12-23T01:12:30.216Z,0
2017-12-23T01:13:10.741Z,0
2017-12-23T01:13:51.287Z,0
2017-12-23T01:14:31.794Z,0
2017-12-23T01:15:12.323Z,0
2017-12-23T01:15:52.857Z,0
2017-12-23T01:16:33.355Z,0
2017-12-23T01:17:13.880Z,0
2017-12-23T01:17:54.416Z,0
2017-12-23T01:18:34.943Z,0
2017-12-23T01:19:15.464Z,0
2017-12-23T01:19:55.980Z,0
2017-12-23T01:20:36.522Z,0
2017-12-23T01:21:17.053Z,0
2017-12-23T01:21:57.592Z,0
2017-12-23T01:22:38.098Z,0
2017-12-23T01:23:18.628Z,0
2017-12-23T01:23:59.154Z,0
2017-12-23T01:24:39.683Z,0
2017-12-23T01:25:20.176Z,0
2017-12-23T01:26:00.722Z,0
2017-12-23T01:26:41.249Z,0
2017-12-23T01:27:21.762Z,0
2017-12-23T01:28:02.290Z,0
2017-12-23T01:28:42.807Z,0
2017-12-23T01:29:23.319Z,0
2017-12-23T01:30:03.839Z,0
2017-12-23T01:30:44.375Z,0
2017-12-23T01:31:24.896Z,0
2017-12-23T01:32:05.418Z,0
2017-12-23T01:32:45.923Z,0
2017-12-23T01:33:26.441Z,0
2017-12-23T01:34:06.967Z,0
2017-12-23T01:34:47.485Z,0
2017-12-23T01:35:27.996Z,0
2017-12-23T01:36:08.508Z,0
2017-12-23T01:36:49.044Z,0
2017-12-23T01:37:29.572Z,0
2017-12-23T01:38:10.107Z,0
2017-12-23T01:38:50.599Z,0
2017-12-23T01:39:31.121Z,0
2017-12-23T01:40:11.628Z,0
2017-12-23T01:40:52.168Z,0
2017-12-23T01:41:32.694Z,0
2017-12-23T01:42:13.208Z,0
2017-12-23T01:42:53.712Z,0
2017-12-23T01:43:34.248Z,0
2017-12-23T01:44:14.801Z,0
2017-12-23T01:44:55.274Z,0
2017-12-23T01:45:35.804Z,0
2017-12-23T01:46:16.335Z,0
2017-12-23T01:46:56.877Z,0
2017-12-23T01:47:37.413Z,0
2017-12-23T01:48:17.947Z,0
2017-12-23T01:48:58.468Z,0
2017-12-23T01:49:38.971Z,0
2017-12-23T01:50:19.513Z,0
2017-12-23T01:51:00.014Z,0
2017-12-23T01:51:40.534Z,0
2017-12-23T01:52:21.034Z,0
2017-12-23T01:53:01.543Z,0
2017-12-23T01:53:42.066Z,0
2017-12-23T01:54:22.574Z,0
2017-12-23T01:55:03.079Z,0
2017-12-23T01:55:43.615Z,0
2017-12-23T01:56:24.163Z,0
2017-12-23T01:57:04.672Z,0
2017-12-23T01:57:45.200Z,0
2017-12-23T01:58:25.727Z,0
2017-12-23T01:59:06.240Z,0
2017-12-23T01:59:46.769Z,0
2017-12-23T02:00:27.301Z,0
2017-12-23T02:01:07.828Z,0
2017-12-23T02:01:48.353Z,0
2017-12-23T02:02:28.873Z,0
2017-12-23T02:03:09.421Z,0
2017-12-23T02:03:49.949Z,0
2017-12-23T02:04:30.479Z,0
2017-12-23T02:05:10.996Z,0
2017-12-23T02:05:51.516Z,0
2017-12-23T02:06:32.033Z,0
2017-12-23T02:07:12.546Z,0
2017-12-23T02:07:53.066Z,0
2017-12-23T02:08:33.596Z,0
2017-12-23T02:09:14.094Z,0
2017-12-23T02:09:54.623Z,0
2017-12-23T02:10:35.154Z,0
2017-12-23T02:11:15.703Z,0
2017-12-23T02:11:56.242Z,0
2017-12-23T02:12:36.794Z,0
2017-12-23T02:13:17.296Z,0
2017-12-23T02:13:57.818Z,0
2017-12-23T02:14:38.347Z,0
2017-12-23T02:15:18.868Z,0
2017-12-23T02:15:59.372Z,0
2017-12-23T02:16:39.909Z,0
2017-12-23T02:17:20.421Z,0
2017-12-23T02:18:00.915Z,0
2017-12-23T02:18:41.425Z,0
2017-12-23T02:19:21.989Z,0
2017-12-23T02:20:02.503Z,0
2017-12-23T02:20:43.027Z,0
2017-12-23T02:21:23.558Z,0
2017-12-23T02:22:10.933Z,0
2017-12-23T02:22:51.444Z,0
2017-12-23T02:23:31.967Z,0
2017-12-23T02:24:12.484Z,0
2017-12-23T02:24:53.010Z,0
2017-12-23T02:25:33.527Z,0
2017-12-23T02:26:14.045Z,0
2017-12-23T02:26:54.559Z,0
2017-12-23T02:27:35.068Z,0
2017-12-23T02:28:15.582Z,0
2017-12-23T02:28:56.103Z,0
2017-12-23T02:29:36.621Z,0
2017-12-23T02:30:17.135Z,0
2017-12-23T02:30:57.662Z,0
2017-12-23T02:31:38.253Z,0
2017-12-23T02:32:18.779Z,0
2017-12-23T02:32:59.314Z,0
2017-12-23T02:33:39.831Z,0
2017-12-23T02:34:20.365Z,0
2017-12-23T02:35:00.898Z,0
2017-12-23T02:35:41.399Z,0
2017-12-23T02:36:21.915Z,0
2017-12-23T02:37:02.431Z,0
2017-12-23T02:37:42.960Z,0
2017-12-23T02:38:23.483Z,0
2017-12-23T02:39:03.989Z,0
2017-12-23T02:39:44.517Z,0
2017-12-23T02:40:25.031Z,0
2017-12-23T02:41:05.615Z,0
2017-12-23T02:41:46.101Z,0
2017-12-23T02:42:26.617Z,0
2017-12-23T02:43:07.138Z,0
2017-12-23T02:43:47.644Z,0
2017-12-23T02:44:28.173Z,0
2017-12-23T02:45:08.703Z,0
2017-12-23T02:45:49.239Z,0
2017-12-23T02:46:29.753Z,0
2017-12-23T02:47:10.274Z,0
2017-12-23T02:47:50.794Z,0
2017-12-23T02:48:31.312Z,0
2017-12-23T02:49:11.825Z,0
2017-12-23T02:49:52.352Z,0
2017-12-23T02:50:32.888Z,0
2017-12-23T02:51:13.413Z,0
2017-12-23T02:51:53.938Z,0
2017-12-23T02:52:34.457Z,0
2017-12-23T02:53:14.983Z,0
2017-12-23T02:53:55.514Z,0
2017-12-23T02:54:36.047Z,0
2017-12-23T02:55:16.558Z,0
2017-12-23T02:55:57.075Z,0
2017-12-23T02:56:37.589Z,0
2017-12-23T02:57:18.123Z,0
2017-12-23T02:57:58.641Z,0
2017-12-23T02:58:39.161Z,0
2017-12-23T02:59:19.686Z,0
2017-12-23T03:00:00.203Z,0
2017-12-23T03:00:40.721Z,0
2017-12-23T03:01:21.259Z,0
2017-12-23T03:02:01.760Z,0
2017-12-23T03:02:42.293Z,0
2017-12-23T03:03:22.801Z,0
2017-12-23T03:04:03.336Z,0
2017-12-23T03:04:43.856Z,0
2017-12-23T03:05:24.386Z,0
2017-12-23T03:06:04.892Z,0
2017-12-23T03:06:45.403Z,0
2017-12-23T03:07:25.929Z,0
2017-12-23T03:08:06.460Z,0
2017-12-23T03:08:46.966Z,0
2017-12-23T03:09:27.473Z,0
2017-12-23T03:10:07.988Z,0
2017-12-23T03:10:48.510Z,0
2017-12-23T03:11:29.033Z,0
2017-12-23T03:12:09.587Z,0
2017-12-23T03:12:50.098Z,0
2017-12-23T03:13:30.603Z,0
2017-12-23T03:14:11.122Z,0
2017-12-23T03:14:51.637Z,0
2017-12-23T03:15:32.156Z,0
2017-12-23T03:16:12.696Z,0
2017-12-23T03:16:53.217Z,0
2017-12-23T03:17:33.737Z,0
2017-12-23T03:18:14.250Z,0
2017-12-23T03:18:54.794Z,0
2017-12-23T03:19:35.298Z,0
2017-12-23T03:20:15.828Z,0
2017-12-23T03:20:56.331Z,0
2017-12-23T03:21:36.844Z,0
2017-12-23T03:22:17.366Z,0
2017-12-23T03:22:57.889Z,0
2017-12-23T03:23:38.410Z,0
2017-12-23T03:24:18.935Z,0
2017-12-23T03:24:59.465Z,0
2017-12-23T03:25:40.000Z,0
2017-12-23T03:26:20.514Z,0
2017-12-23T03:27:01.032Z,0
2017-12-23T03:27:41.543Z,0
2017-12-23T03:28:22.073Z,0
2017-12-23T03:29:02.596Z,0
2017-12-23T03:29:43.118Z,0
2017-12-23T03:30:23.663Z,0
2017-12-23T03:31:04.188Z,0
2017-12-23T03:31:44.729Z,0
2017-12-23T03:32:25.228Z,0
2017-12-23T03:33:05.748Z,0
2017-12-23T03:33:46.276Z,0
2017-12-23T03:34:26.788Z,0
2017-12-23T03:35:07.314Z,0
2017-12-23T03:35:47.847Z,0
2017-12-23T03:36:28.378Z,0
2017-12-23T03:37:08.889Z,0
2017-12-23T03:37:49.414Z,0
2017-12-23T03:38:29.928Z,0
2017-12-23T03:39:10.449Z,0
2017-12-23T03:39:50.960Z,0
2017-12-23T03:40:31.486Z,0
2017-12-23T03:41:11.993Z,0
2017-12-23T03:41:52.518Z,0
2017-12-23T03:42:33.043Z,0
2017-12-23T03:43:13.543Z,0
2017-12-23T03:43:54.069Z,0
2017-12-23T03:44:34.598Z,0
2017-12-23T03:45:15.122Z,0
2017-12-23T03:45:55.648Z,0
2017-12-23T03:46:36.177Z,0
2017-12-23T03:47:16.680Z,0
2017-12-23T03:47:57.215Z,0
2017-12-23T03:48:37.717Z,0
2017-12-23T03:49:18.248Z,0
2017-12-23T03:49:58.791Z,0
2017-12-23T03:50:39.303Z,0
2017-12-23T03:51:19.853Z,0
2017-12-23T03:52:00.379Z,0
2017-12-23T03:52:40.912Z,0
2017-12-23T03:53:21.437Z,0
2017-12-23T03:54:01.958Z,0
2017-12-23T03:54:42.485Z,0
2017-12-23T03:55:23.008Z,0
2017-12-23T03:56:03.490Z,0
2017-12-23T03:56:44.034Z,0
2017-12-23T03:57:24.564Z,0
2017-12-23T03:58:05.161Z,0
2017-12-23T03:58:45.660Z,0
2017-12-23T03:59:26.194Z,0
2017-12-23T04:00:06.704Z,0
2017-12-23T04:00:47.221Z,0
2017-12-23T04:01:27.763Z,0
2017-12-23T04:02:08.271Z,0
2017-12-23T04:02:48.794Z,0
2017-12-23T04:03:29.347Z,0
2017-12-23T04:04:09.863Z,0
2017-12-23T04:04:50.380Z,0
2017-12-23T04:05:30.907Z,0
2017-12-23T04:06:11.430Z,0
2017-12-23T04:06:51.935Z,0
2017-12-23T04:07:32.454Z,0
2017-12-23T04:08:12.964Z,0
2017-12-23T04:08:53.477Z,0
2017-12-23T04:09:33.982Z,0
2017-12-23T04:10:14.510Z,0
2017-12-23T04:10:55.018Z,0
2017-12-23T04:11:35.557Z,0
2017-12-23T04:12:16.065Z,0
2017-12-23T04:12:56.589Z,0
2017-12-23T04:13:37.096Z,0
2017-12-23T04:14:17.629Z,0
2017-12-23T04:14:58.164Z,0
2017-12-23T04:15:38.692Z,0
2017-12-23T04:16:19.211Z,0
2017-12-23T04:16:59.727Z,0
2017-12-23T04:17:40.242Z,0
2017-12-23T04:18:20.756Z,0
2017-12-23T04:19:01.304Z,0
2017-12-23T04:19:41.846Z,0
2017-12-23T04:20:22.364Z,0
2017-12-23T04:21:02.888Z,0
2017-12-23T04:21:43.467Z,0
2017-12-23T04:22:23.930Z,0
2017-12-23T04:23:04.462Z,0
2017-12-23T04:23:44.980Z,0
2017-12-23T04:24:25.488Z,0
2017-12-23T04:25:05.994Z,0
2017-12-23T04:25:46.510Z,0
2017-12-23T04:26:27.025Z,0
2017-12-23T04:27:07.562Z,0
2017-12-23T04:27:48.095Z,0
2017-12-23T04:28:28.582Z,0
2017-12-23T04:29:09.117Z,0
2017-12-23T04:29:49.644Z,0
2017-12-23T04:30:30.169Z,0
2017-12-23T04:31:10.691Z,0
2017-12-23T04:31:51.223Z,0
2017-12-23T04:32:31.753Z,0
2017-12-23T04:33:12.304Z,0
2017-12-23T04:33:52.805Z,0
2017-12-23T04:34:33.325Z,0
2017-12-23T04:35:13.848Z,0
2017-12-23T04:35:54.368Z,0
2017-12-23T04:36:34.894Z,0
2017-12-23T04:37:15.417Z,0
2017-12-23T04:37:55.931Z,0
2017-12-23T04:38:36.452Z,0
2017-12-23T04:39:16.965Z,0
2017-12-23T04:39:57.510Z,0
2017-12-23T04:40:38.036Z,0
2017-12-23T04:41:18.552Z,0
2017-12-23T04:41:59.078Z,0
2017-12-23T04:42:39.617Z,0
2017-12-23T04:43:20.130Z,0
2017-12-23T04:44:00.680Z,0
2017-12-23T04:44:41.197Z,0
2017-12-23T04:45:21.711Z,0
2017-12-23T04:46:02.232Z,0
2017-12-23T04:46:42.736Z,0
2017-12-23T04:47:23.262Z,0
2017-12-23T04:48:03.787Z,0
2017-12-23T04:48:44.328Z,0
2017-12-23T04:49:24.836Z,0
2017-12-23T04:50:05.364Z,0
2017-12-23T04:50:45.880Z,0
2017-12-23T04:51:26.388Z,0
2017-12-23T04:52:06.909Z,0
2017-12-23T04:52:47.433Z,0
2017-12-23T04:53:27.974Z,0
2017-12-23T04:54:08.485Z,0
2017-12-23T04:54:49.015Z,0
2017-12-23T04:55:29.536Z,0
2017-12-23T04:56:10.051Z,0
2017-12-23T04:56:50.561Z,0
2017-12-23T04:57:31.080Z,0
2017-12-23T04:58:11.578Z,0
2017-12-23T04:58:52.098Z,0
2017-12-23T04:59:32.627Z,0
2017-12-23T05:00:13.148Z,0
2017-12-23T05:00:53.663Z,0
2017-12-23T05:01:34.228Z,0
2017-12-23T05:02:14.755Z,0
2017-12-23T05:02:55.281Z,0
2017-12-23T05:03:35.781Z,0
2017-12-23T05:04:16.289Z,0
2017-12-23T05:04:56.794Z,0
2017-12-23T05:05:37.324Z,0
2017-12-23T05:06:17.861Z,0
2017-12-23T05:06:58.378Z,0
2017-12-23T05:07:38.912Z,0
2017-12-23T05:08:19.407Z,0
2017-12-23T05:08:59.946Z,0
2017-12-23T05:09:40.520Z,0
2017-12-23T05:10:21.042Z,0
2017-12-23T05:11:01.577Z,0
2017-12-23T05:11:42.115Z,0
2017-12-23T05:12:22.627Z,0
2017-12-23T05:13:03.161Z,0
2017-12-23T05:13:43.683Z,0
2017-12-23T05:14:24.194Z,0
2017-12-23T05:15:04.724Z,0
2017-12-23T05:15:45.256Z,0
2017-12-23T05:16:25.771Z,0
2017-12-23T05:17:06.286Z,0
2017-12-23T05:17:46.794Z,0
2017-12-23T05:18:27.322Z,0
2017-12-23T05:19:07.829Z,0
2017-12-23T05:19:48.366Z,0
2017-12-23T05:20:28.892Z,0
2017-12-23T05:21:09.420Z,0
2017-12-23T05:21:49.956Z,0
2017-12-23T05:22:30.477Z,0
2017-12-23T05:23:10.997Z,0
2017-12-23T05:23:51.519Z,0
2017-12-23T05:24:32.046Z,0
2017-12-23T05:25:12.561Z,0
2017-12-23T05:25:53.099Z,0
2017-12-23T05:26:33.584Z,0
2017-12-23T05:27:14.113Z,0
2017-12-23T05:27:54.634Z,0
2017-12-23T05:28:35.139Z,0
2017-12-23T05:29:15.682Z,0
2017-12-23T05:29:56.206Z,0
2017-12-23T05:30:36.721Z,0
2017-12-23T05:31:17.248Z,0
2017-12-23T05:31:57.775Z,0
2017-12-23T05:32:38.288Z,0
2017-12-23T05:33:18.818Z,0
2017-12-23T05:33:59.349Z,0
2017-12-23T05:34:39.871Z,0
2017-12-23T05:35:20.389Z,0
2017-12-23T05:36:00.899Z,0
2017-12-23T05:36:41.428Z,0
2017-12-23T05:37:21.947Z,0
2017-12-23T05:38:02.467Z,0
2017-12-23T05:38:42.977Z,0
2017-12-23T05:39:23.525Z,0
2017-12-23T05:40:04.009Z,0
2017-12-23T05:40:44.536Z,0
2017-12-23T05:41:25.038Z,0
2017-12-23T05:42:05.568Z,0
2017-12-23T05:42:46.093Z,0
2017-12-23T05:43:26.624Z,0
2017-12-23T05:44:07.168Z,0
2017-12-23T05:44:47.678Z,0
2017-12-23T05:45:28.191Z,0
2017-12-23T05:46:08.719Z,0
2017-12-23T05:46:49.264Z,0
2017-12-23T05:47:29.777Z,0
2017-12-23T05:48:10.298Z,0
2017-12-23T05:48:50.827Z,0
2017-12-23T05:49:31.353Z,0
2017-12-23T05:50:11.872Z,0
2017-12-23T05:50:52.420Z,0
2017-12-23T05:51:32.973Z,0
2017-12-23T05:52:13.485Z,0
2017-12-23T05:52:54.011Z,0
2017-12-23T05:53:34.533Z,0
2017-12-23T05:54:15.042Z,0
2017-12-23T05:54:55.560Z,0
2017-12-23T05:55:36.073Z,0
2017-12-23T05:56:16.588Z,0
2017-12-23T05:56:57.114Z,0
2017-12-23T05:57:37.630Z,0
2017-12-23T05:58:18.136Z,0
2017-12-23T05:58:58.657Z,0
2017-12-23T05:59:39.168Z,0
2017-12-23T06:00:19.693Z,0
2017-12-23T06:01:00.230Z,0
2017-12-23T06:01:40.806Z,0
2017-12-23T06:02:21.334Z,0
2017-12-23T06:03:01.860Z,0
2017-12-23T06:03:42.382Z,0
2017-12-23T06:04:22.907Z,0
2017-12-23T06:05:03.419Z,0
2017-12-23T06:05:43.935Z,0
2017-12-23T06:06:24.439Z,0
2017-12-23T06:07:04.958Z,0
2017-12-23T06:07:45.457Z,0
2017-12-23T06:08:25.994Z,0
2017-12-23T06:09:06.493Z,0
2017-12-23T06:09:47.015Z,0
2017-12-23T06:10:27.531Z,0
2017-12-23T06:11:08.049Z,0
2017-12-23T06:11:48.562Z,0
2017-12-23T06:12:29.082Z,0
2017-12-23T06:13:09.635Z,0
2017-12-23T06:13:50.155Z,0
2017-12-23T06:14:30.657Z,0
2017-12-23T06:15:11.187Z,0
2017-12-23T06:15:51.708Z,0
2017-12-23T06:16:32.230Z,0
2017-12-23T06:17:12.763Z,0
2017-12-23T06:17:53.322Z,0
2017-12-23T06:18:33.866Z,0
2017-12-23T06:19:14.384Z,0
2017-12-23T06:19:54.914Z,0
2017-12-23T06:20:35.416Z,0
2017-12-23T06:21:15.945Z,0
2017-12-23T06:21:56.462Z,0
2017-12-23T06:22:36.964Z,0
2017-12-23T06:23:17.490Z,0
2017-12-23T06:23:58.014Z,0
2017-12-23T06:24:38.872Z,0
2017-12-23T06:25:19.393Z,0
2017-12-23T06:25:59.915Z,0
2017-12-23T06:26:40.413Z,0
2017-12-23T06:27:20.939Z,0
2017-12-23T06:28:01.446Z,0
2017-12-23T06:28:41.972Z,0
2017-12-23T06:29:22.466Z,0
2017-12-23T06:30:02.987Z,0
2017-12-23T06:30:43.511Z,0
2017-12-23T06:31:24.034Z,0
2017-12-23T06:32:04.547Z,0
2017-12-23T06:32:45.074Z,0
2017-12-23T06:33:25.592Z,0
2017-12-23T06:34:06.097Z,0
2017-12-23T06:34:46.622Z,0
2017-12-23T06:35:27.134Z,0
2017-12-23T06:36:07.653Z,0
2017-12-23T06:36:48.182Z,0
2017-12-23T06:37:28.709Z,0
2017-12-23T06:38:09.201Z,0
2017-12-23T06:38:49.798Z,0
2017-12-23T06:39:30.327Z,0
2017-12-23T06:40:10.869Z,0
2017-12-23T06:40:51.388Z,0
2017-12-23T06:41:31.889Z,0
2017-12-23T06:42:12.402Z,0
2017-12-23T06:42:52.939Z,0
2017-12-23T06:43:33.447Z,0
2017-12-23T06:44:13.949Z,0
2017-12-23T06:44:54.520Z,0
2017-12-23T06:45:35.053Z,0
2017-12-23T06:46:15.621Z,0
2017-12-23T06:46:56.176Z,0
2017-12-23T06:47:36.701Z,0
2017-12-23T06:48:17.238Z,0
2017-12-23T06:48:57.800Z,0
2017-12-23T06:49:38.339Z,0
2017-12-23T06:50:18.842Z,0
2017-12-23T06:50:59.355Z,0
2017-12-23T06:51:39.897Z,0
2017-12-23T06:52:20.402Z,0
2017-12-23T06:53:00.908Z,0
2017-12-23T06:53:41.449Z,0
2017-12-23T06:54:21.968Z,0
2017-12-23T06:55:02.485Z,0
2017-12-23T06:55:42.986Z,0
2017-12-23T06:56:23.509Z,0
2017-12-23T06:57:04.087Z,0
2017-12-23T06:57:44.610Z,0
2017-12-23T06:58:25.107Z,0
2017-12-23T06:59:05.643Z,0
2017-12-23T06:59:46.150Z,0
2017-12-23T07:00:26.678Z,0
2017-12-23T07:01:07.315Z,0
2017-12-23T07:01:47.875Z,0
2017-12-23T07:02:28.502Z,0
2017-12-23T07:03:09.016Z,0
2017-12-23T07:03:49.556Z,0
2017-12-23T07:04:30.072Z,0
2017-12-23T07:05:10.583Z,0
2017-12-23T07:05:51.134Z,0
2017-12-23T07:06:31.644Z,0
2017-12-23T07:07:12.157Z,0
2017-12-23T07:07:52.690Z,0
2017-12-23T07:08:33.217Z,0
2017-12-23T07:09:13.732Z,0
2017-12-23T07:09:54.261Z,4
2017-12-23T07:10:34.833Z,4
2017-12-23T07:11:15.363Z,4
2017-12-23T07:11:55.871Z,0
2017-12-23T07:12:36.417Z,0
2017-12-23T07:13:16.922Z,0
2017-12-23T07:13:57.450Z,4
2017-12-23T07:14:37.983Z,4
2017-12-23T07:15:18.512Z,0
2017-12-23T07:15:59.040Z,4
2017-12-23T07:16:39.551Z,0
2017-12-23T07:17:20.054Z,4
2017-12-23T07:18:00.590Z,4
2017-12-23T07:18:41.103Z,8
2017-12-23T07:19:21.616Z,8
2017-12-23T07:20:02.346Z,8
2017-12-23T07:20:43.253Z,4
2017-12-23T07:21:24.125Z,8
2017-12-23T07:22:05.012Z,4
2017-12-23T07:22:45.745Z,8
2017-12-23T07:23:26.472Z,8
2017-12-23T07:24:07.114Z,12
2017-12-23T07:24:47.620Z,8
2017-12-23T07:25:28.148Z,12
2017-12-23T07:26:08.665Z,16
2017-12-23T07:26:49.188Z,16
2017-12-23T07:27:29.791Z,12
2017-12-23T07:28:10.271Z,16
2017-12-23T07:28:50.794Z,12
2017-12-23T07:29:31.295Z,16
2017-12-23T07:30:11.846Z,20
2017-12-23T07:30:52.368Z,20
2017-12-23T07:31:32.858Z,20
2017-12-23T07:32:13.373Z,20
2017-12-23T07:32:53.907Z,20
2017-12-23T07:33:34.443Z,24
2017-12-23T07:34:14.922Z,24
2017-12-23T07:34:55.417Z,24
2017-12-23T07:35:35.929Z,24
2017-12-23T07:36:16.443Z,24
2017-12-23T07:36:56.950Z,24
2017-12-23T07:37:37.448Z,24
2017-12-23T07:38:17.968Z,28
2017-12-23T07:38:58.486Z,28
2017-12-23T07:39:39.004Z,32
2017-12-23T07:40:19.537Z,32
2017-12-23T07:41:00.048Z,32
2017-12-23T07:41:40.565Z,32
2017-12-23T07:42:21.088Z,36
2017-12-23T07:43:01.584Z,36
2017-12-23T07:43:42.105Z,36
2017-12-23T07:44:22.641Z,40
2017-12-23T07:45:03.162Z,44
2017-12-23T07:45:43.683Z,44
2017-12-23T07:46:24.202Z,48
2017-12-23T07:47:04.707Z,52
2017-12-23T07:47:45.229Z,60
2017-12-23T07:48:25.753Z,60
2017-12-23T07:49:06.255Z,64
2017-12-23T07:49:46.759Z,68
2017-12-23T07:50:27.264Z,68
2017-12-23T07:51:07.780Z,76
2017-12-23T07:51:48.315Z,80
2017-12-23T07:52:28.842Z,92
2017-12-23T07:53:09.413Z,112
2017-12-23T07:53:49.924Z,120
2017-12-23T07:54:30.455Z,116
2017-12-23T07:55:10.962Z,124
2017-12-23T07:55:51.497Z,128
2017-12-23T07:56:31.994Z,128
2017-12-23T07:57:12.520Z,136
2017-12-23T07:57:53.034Z,148
2017-12-23T07:58:33.563Z,156
2017-12-23T07:59:14.080Z,156
2017-12-23T07:59:54.606Z,156
2017-12-23T08:00:35.148Z,160
2017-12-23T08:01:15.653Z,168
2017-12-23T08:01:56.166Z,172
2017-12-23T08:02:36.700Z,172
2017-12-23T08:03:17.244Z,172
2017-12-23T08:03:57.720Z,172
2017-12-23T08:04:38.215Z,172
2017-12-23T08:05:18.740Z,176
2017-12-23T08:05:59.263Z,168
2017-12-23T08:06:39.790Z,184
2017-12-23T08:07:20.270Z,188
2017-12-23T08:08:00.779Z,204
2017-12-23T08:08:41.272Z,200
2017-12-23T08:09:21.801Z,208
2017-12-23T08:10:02.338Z,212
2017-12-23T08:10:42.817Z,204
2017-12-23T08:11:23.333Z,204
2017-12-23T08:12:03.844Z,224
2017-12-23T08:12:44.375Z,220
2017-12-23T08:13:24.893Z,236
2017-12-23T08:14:05.398Z,260
2017-12-23T08:14:45.910Z,252
2017-12-23T08:15:26.439Z,232
2017-12-23T08:16:06.944Z,232
2017-12-23T08:16:47.464Z,232
2017-12-23T08:17:27.960Z,232
2017-12-23T08:18:08.465Z,240
2017-12-23T08:18:49.007Z,252
2017-12-23T08:19:29.520Z,260
2017-12-23T08:20:10.047Z,272
2017-12-23T08:20:50.559Z,264
2017-12-23T08:21:31.083Z,260
2017-12-23T08:22:11.621Z,264
2017-12-23T08:22:52.111Z,316
2017-12-23T08:23:32.634Z,320
2017-12-23T08:24:13.168Z,308
2017-12-23T08:24:53.668Z,288
2017-12-23T08:25:34.186Z,304
2017-12-23T08:26:14.677Z,320
2017-12-23T08:26:55.196Z,308
2017-12-23T08:27:35.731Z,300
2017-12-23T08:28:16.240Z,296
2017-12-23T08:28:56.748Z,288
2017-12-23T08:29:37.268Z,288
2017-12-23T08:30:17.784Z,288
2017-12-23T08:30:58.288Z,320
2017-12-23T08:31:38.798Z,336
2017-12-23T08:32:19.328Z,332
2017-12-23T08:32:59.853Z,312
2017-12-23T08:33:40.363Z,312
2017-12-23T08:34:21.574Z,328
2017-12-23T08:35:02.081Z,320
2017-12-23T08:35:42.611Z,356
2017-12-23T08:36:23.158Z,412
2017-12-23T08:37:03.654Z,476
2017-12-23T08:37:44.185Z,468
2017-12-23T08:38:24.710Z,516
2017-12-23T08:39:05.226Z,540
2017-12-23T08:39:45.754Z,552
2017-12-23T08:40:26.269Z,512
2017-12-23T08:41:06.819Z,520
2017-12-23T08:41:47.349Z,492
2017-12-23T08:42:27.851Z,488
2017-12-23T08:43:08.380Z,452
2017-12-23T08:43:48.882Z,452
2017-12-23T08:44:29.410Z,492
2017-12-23T08:45:09.921Z,488
2017-12-23T08:45:50.429Z,508
2017-12-23T08:46:30.935Z,560
2017-12-23T08:47:11.435Z,600
2017-12-23T08:47:51.956Z,600
2017-12-23T08:48:32.461Z,604
2017-12-23T08:49:12.963Z,572
2017-12-23T08:49:53.470Z,600
2017-12-23T08:50:33.976Z,636
2017-12-23T08:51:14.500Z,656
2017-12-23T08:51:55.002Z,612
2017-12-23T08:52:35.548Z,608
2017-12-23T08:53:16.044Z,640
2017-12-23T08:53:56.613Z,572
2017-12-23T08:54:37.042Z,516
2017-12-23T08:55:17.562Z,552
2017-12-23T08:55:58.097Z,580
2017-12-23T08:56:38.635Z,608
2017-12-23T08:57:19.153Z,560
2017-12-23T08:57:59.679Z,560
2017-12-23T08:58:40.198Z,548
2017-12-23T08:59:20.729Z,504
2017-12-23T09:00:01.266Z,464
2017-12-23T09:00:41.798Z,464
2017-12-23T09:01:22.318Z,488
2017-12-23T09:02:02.834Z,500
2017-12-23T09:02:43.356Z,488
2017-12-23T09:03:23.906Z,472
2017-12-23T09:04:04.421Z,472
2017-12-23T09:04:44.943Z,484
2017-12-23T09:05:25.482Z,500
2017-12-23T09:06:06.015Z,548
2017-12-23T09:06:46.597Z,552
2017-12-23T09:07:27.082Z,520
2017-12-23T09:08:07.593Z,504
2017-12-23T09:08:48.113Z,540
2017-12-23T09:09:28.639Z,548
2017-12-23T09:10:09.225Z,564
2017-12-23T09:10:49.784Z,572
2017-12-23T09:11:30.316Z,548
2017-12-23T09:12:10.832Z,512
2017-12-23T09:12:51.354Z,496
2017-12-23T09:13:31.895Z,500
2017-12-23T09:14:12.432Z,504
2017-12-23T09:14:52.936Z,432
2017-12-23T09:15:33.467Z,364
2017-12-23T09:16:13.976Z,356
2017-12-23T09:16:54.496Z,360
2017-12-23T09:17:34.998Z,376
2017-12-23T09:18:15.518Z,388
2017-12-23T09:18:56.024Z,396
2017-12-23T09:19:36.552Z,412
2017-12-23T09:20:17.051Z,416
2017-12-23T09:20:57.578Z,612
2017-12-23T09:21:38.092Z,696
2017-12-23T09:22:18.604Z,676
2017-12-23T09:22:59.124Z,704
2017-12-23T09:23:39.633Z,716
2017-12-23T09:24:20.140Z,632
2017-12-23T09:25:01.557Z,560
2017-12-23T09:25:42.090Z,512
2017-12-23T09:26:22.613Z,504
2017-12-23T09:27:03.152Z,576
2017-12-23T09:27:43.665Z,704
2017-12-23T09:28:24.234Z,800
2017-12-23T09:29:04.750Z,816
2017-12-23T09:29:45.689Z,784
2017-12-23T09:30:26.242Z,816
2017-12-23T09:31:06.793Z,820
2017-12-23T09:31:47.278Z,816
2017-12-23T09:32:27.780Z,824
2017-12-23T09:33:08.315Z,808
2017-12-23T09:33:48.841Z,904
2017-12-23T09:34:29.336Z,936
2017-12-23T09:35:09.838Z,880
2017-12-23T09:35:50.358Z,872
2017-12-23T09:36:30.879Z,824
2017-12-23T09:37:11.398Z,776
2017-12-23T09:37:51.948Z,820
2017-12-23T09:38:32.474Z,820
2017-12-23T09:39:12.990Z,812
2017-12-23T09:39:53.490Z,844
2017-12-23T09:40:34.005Z,836
2017-12-23T09:41:14.543Z,816
2017-12-23T09:41:55.082Z,848
2017-12-23T09:42:35.603Z,876
2017-12-23T09:43:16.096Z,848
2017-12-23T09:43:56.614Z,812
2017-12-23T09:44:37.133Z,840
2017-12-23T09:45:17.660Z,864
2017-12-23T09:45:58.171Z,840
2017-12-23T09:46:38.676Z,800
2017-12-23T09:47:19.190Z,784
2017-12-23T09:47:59.717Z,864
2017-12-23T09:48:40.243Z,900
2017-12-23T09:49:20.757Z,888